TimeEST,TemperatureF,Dew PointF,Humidity,Sea Level PressureIn,VisibilityMPH,Wind Direction,Wind SpeedMPH,Gust SpeedMPH,PrecipitationIn,Events,Conditions,WindDirDegrees,DateUTC
12:53 AM,28.9,27.0,92,30.43,2.5,NNE,3.5,-,N/A,,Clear,20,2012-11-19 05:53:00
1:34 AM,28.4,26.6,93,30.40,2.0,North,3.5,-,N/A,,Scattered Clouds,10,2012-11-19 06:34:00
1:42 AM,28.4,26.6,93,30.40,2.5,North,3.5,-,N/A,,Mostly Cloudy,10,2012-11-19 06:42:00
1:53 AM,28.0,26.1,92,30.43,2.0,Calm,Calm,-,N/A,,Overcast,0,2012-11-19 06:53:00
1:57 AM,28.4,26.6,93,30.39,0.8,NNE,3.5,-,N/A,,Mist,20,2012-11-19 06:57:00
2:53 AM,30.9,30.0,96,30.42,0.2,Calm,Calm,-,N/A,Fog,Light Freezing Fog,0,2012-11-19 07:53:00
3:53 AM,28.9,28.0,96,30.41,0.2,Calm,Calm,-,N/A,Fog,Light Freezing Fog,0,2012-11-19 08:53:00
4:53 AM,28.9,28.0,96,30.40,0.2,North,3.5,-,N/A,Fog,Light Freezing Fog,10,2012-11-19 09:53:00
5:53 AM,28.0,28.0,100,30.40,0.8,Calm,Calm,-,N/A,,Mist,0,2012-11-19 10:53:00
5:59 AM,28.4,26.6,93,30.37,1.8,Calm,Calm,-,N/A,,Mostly Cloudy,0,2012-11-19 10:59:00
6:06 AM,28.4,26.6,93,30.37,2.5,NNE,3.5,-,N/A,,Mostly Cloudy,20,2012-11-19 11:06:00
6:14 AM,28.4,26.6,93,30.36,2.5,Calm,Calm,-,N/A,,Scattered Clouds,0,2012-11-19 11:14:00
6:46 AM,28.4,26.6,93,30.37,3.0,Calm,Calm,-,N/A,,Clear,0,2012-11-19 11:46:00
6:53 AM,28.9,27.0,92,30.40,3.0,Calm,Calm,-,N/A,,Clear,0,2012-11-19 11:53:00
7:53 AM,30.0,28.9,96,30.40,3.0,Calm,Calm,-,N/A,,Clear,0,2012-11-19 12:53:00
8:32 AM,30.2,30.2,100,30.37,2.5,Calm,Calm,-,N/A,,Clear,0,2012-11-19 13:32:00
8:43 AM,32.0,30.2,93,30.37,3.0,Calm,Calm,-,N/A,,Clear,0,2012-11-19 13:43:00
8:53 AM,32.0,30.9,96,30.40,3.0,Calm,Calm,-,N/A,,Clear,0,2012-11-19 13:53:00
9:53 AM,36.0,35.1,97,30.40,4.0,Calm,Calm,-,N/A,,Clear,0,2012-11-19 14:53:00
10:53 AM,42.1,36.0,79,30.40,8.0,Calm,Calm,-,N/A,,Clear,0,2012-11-19 15:53:00
11:53 AM,46.9,34.0,61,30.37,10.0,Calm,Calm,-,N/A,,Clear,0,2012-11-19 16:53:00
12:53 PM,50.0,35.1,57,30.34,10.0,South,3.5,-,N/A,,Clear,170,2012-11-19 17:53:00
1:53 PM,52.0,34.0,50,30.32,10.0,South,4.6,-,N/A,,Clear,190,2012-11-19 18:53:00
2:53 PM,52.0,34.0,50,30.30,10.0,SSE,3.5,-,N/A,,Clear,160,2012-11-19 19:53:00
3:53 PM,51.1,37.0,59,30.28,10.0,SSE,3.5,-,N/A,,Clear,160,2012-11-19 20:53:00
4:53 PM,50.0,36.0,59,30.28,10.0,Calm,Calm,-,N/A,,Clear,0,2012-11-19 21:53:00
5:53 PM,46.9,35.1,63,30.27,10.0,Calm,Calm,-,N/A,,Clear,0,2012-11-19 22:53:00
6:53 PM,45.0,35.1,68,30.27,10.0,Calm,Calm,-,N/A,,Clear,0,2012-11-19 23:53:00
7:53 PM,43.0,35.1,74,30.26,10.0,ESE,3.5,-,N/A,,Clear,120,2012-11-20 00:53:00
8:53 PM,44.1,32.0,63,30.25,10.0,Calm,Calm,-,N/A,,Clear,0,2012-11-20 01:53:00
9:53 PM,42.1,30.9,65,30.24,10.0,Calm,Calm,-,N/A,,Clear,0,2012-11-20 02:53:00
10:53 PM,39.9,30.9,70,30.22,10.0,Calm,Calm,-,N/A,,Clear,0,2012-11-20 03:53:00
11:53 PM,39.9,30.9,70,30.21,9.0,Calm,Calm,-,N/A,,Mostly Cloudy,0,2012-11-20 04:53:00